Time;durP1;ratioP1;P1;durP2;ratioP2;P2;SDS_P1;SDS_P2;PMS_P1;PMS_P2;Temp;Humidity;BMP_temperature;BMP_pressure;BME280_temperature;BME280_humidity;BME280_pressure;Samples;Min_cycle;Max_cycle;Signal;HPM_P1;HPM_P2
2023/06/14 00:00:44;;;;;;;9.88;6.88;;;;;;;-144.30;92.76;84939.25;5111243;28;20887;-57
2023/06/14 00:03:11;;;;;;;7.57;6.97;;;;;;;-144.30;93.19;84921.34;5111125;28;20205;-55
2023/06/14 00:05:42;;;;;;;7.45;6.85;;;;;;;-144.30;93.52;84887.56;5111247;28;20229;-57
2023/06/14 00:08:10;;;;;;;7.88;7.05;;;;;;;-144.30;93.73;84933.28;5111056;28;20275;-57
2023/06/14 00:10:38;;;;;;;7.75;7.25;;;;;;;-144.30;94.44;84937.25;5109615;28;20678;-57
2023/06/14 00:13:07;;;;;;;8.05;7.55;;;;;;;-144.30;95.10;84939.25;5111365;28;20631;-57
2023/06/14 00:15:34;;;;;;;7.75;7.25;;;;;;;-144.30;95.49;84941.22;5111307;28;20645;-56
2023/06/14 00:18:01;;;;;;;8.05;7.40;;;;;;;-144.30;96.07;84909.41;5111332;28;20220;-57
2023/06/14 00:20:28;;;;;;;8.45;7.72;;;;;;;-144.30;96.17;84953.16;5110881;28;20194;-57
2023/06/14 00:22:56;;;;;;;8.45;7.18;;;;;;;-144.30;96.73;84955.13;5111019;28;20201;-56
2023/06/14 00:25:23;;;;;;;8.23;7.45;;;;;;;-144.30;97.10;84931.28;5110669;28;20202;-56
2023/06/14 00:27:50;;;;;;;7.80;7.30;;;;;;;-144.30;97.49;84982.97;5111180;28;20587;-57
2023/06/14 00:30:19;;;;;;;8.30;7.50;;;;;;;-144.30;98.02;84935.25;5110820;28;20759;-58
2023/06/14 00:32:46;;;;;;;9.00;8.40;;;;;;;-144.30;98.05;84963.09;5110460;28;20191;-56
2023/06/14 00:35:14;;;;;;;8.40;7.75;;;;;;;-144.30;97.79;84943.22;5110453;28;20191;-58
2023/06/14 00:37:41;;;;;;;8.20;7.40;;;;;;;-144.30;97.48;84959.13;5110615;28;20290;-56
2023/06/14 00:40:08;;;;;;;8.52;7.90;;;;;;;-144.30;97.79;84967.06;5110444;28;20194;-58
2023/06/14 00:42:35;;;;;;;9.55;8.52;;;;;;;-144.30;98.08;84943.22;5110660;28;20224;-59
2023/06/14 00:45:02;;;;;;;8.98;8.32;;;;;;;-144.30;98.92;85016.75;5110816;28;20194;-57
2023/06/14 00:47:30;;;;;;;8.43;7.93;;;;;;;-144.30;99.01;85008.81;5110728;28;20282;-63
2023/06/14 00:49:58;;;;;;;9.25;7.75;;;;;;;-144.30;99.05;85000.84;5110807;28;20198;-62
2023/06/14 00:52:25;;;;;;;7.80;7.20;;;;;;;-144.30;99.06;84959.13;5110471;28;20190;-62
2023/06/14 00:54:52;;;;;;;9.27;8.50;;;;;;;-144.30;99.45;85030.66;5111378;28;20191;-62
2023/06/14 00:57:20;;;;;;;9.10;8.30;;;;;;;-144.30;99.71;84982.97;5111095;28;20220;-61
2023/06/14 00:59:49;;;;;;;8.25;7.70;;;;;;;-144.30;99.65;84998.88;5110824;28;20669;-62
2023/06/14 01:02:17;;;;;;;8.63;7.93;;;;;;;-144.30;99.37;84980.97;5110652;28;20218;-62
2023/06/14 01:04:48;;;;;;;12.18;8.27;;;;;;;-144.30;99.48;84996.88;5110803;28;20210;-62
2023/06/14 01:07:24;;;;;;;9.02;8.18;;;;;;;-144.30;99.59;85034.66;5111074;28;20194;-61
2023/06/14 01:10:05;;;;;;;9.23;7.90;;;;;;;-144.30;100.00;84982.97;5110783;28;20635;-61
2023/06/14 01:12:40;;;;;;;10.23;7.72;;;;;;;-144.30;99.97;84996.88;5110819;28;20190;-61
2023/06/14 01:15:09;;;;;;;8.60;7.90;;;;;;;-144.30;100.00;84921.34;5110591;28;20201;-61
2023/06/14 01:17:43;;;;;;;9.88;9.10;;;;;;;-144.30;100.00;85022.72;5110785;28;20187;-61
2023/06/14 01:20:14;;;;;;;9.07;8.25;;;;;;;-144.30;100.00;84992.91;5110246;28;20202;-61
2023/06/14 01:22:51;;;;;;;10.88;8.95;;;;;;;-144.30;100.00;85010.78;5110155;28;20218;-56
2023/06/14 01:25:20;;;;;;;8.98;8.27;;;;;;;-144.30;100.00;85030.66;5110132;28;20194;-56
2023/06/14 01:27:50;;;;;;;8.50;7.65;;;;;;;-144.30;100.00;85012.78;5110200;28;20589;-55
2023/06/14 01:30:18;;;;;;;9.10;8.30;;;;;;;-144.30;100.00;85410.34;5109925;28;20240;-56
2023/06/14 01:32:47;;;;;;;10.00;8.70;;;;;;;-144.30;100.00;85034.66;5110034;28;20190;-56
2023/06/14 01:35:14;;;;;;;8.90;8.20;;;;;;;-144.30;100.00;85030.66;5110111;28;20191;-56
2023/06/14 01:37:41;;;;;;;8.98;8.30;;;;;;;-144.30;100.00;84986.94;5109887;28;20195;-61
2023/06/14 01:40:11;;;;;;;8.63;7.85;;;;;;;-144.30;100.00;85038.63;5110204;28;20198;-61
2023/06/14 01:42:39;;;;;;;9.25;8.30;;;;;;;-144.30;100.00;85342.75;5110081;28;20226;-61
2023/06/14 01:45:08;;;;;;;9.38;8.57;;;;;;;-144.30;100.00;85046.56;5110790;28;20191;-62
2023/06/14 01:47:36;;;;;;;9.82;9.02;;;;;;;-144.30;100.00;85054.53;5110180;28;20201;-62
2023/06/14 01:50:03;;;;;;;9.45;8.63;;;;;;;-144.30;100.00;85030.66;5110580;28;20590;-61
2023/06/14 01:52:31;;;;;;;9.52;8.43;;;;;;;-144.30;100.00;85038.63;5109934;28;20217;-61
2023/06/14 01:55:02;;;;;;;8.95;8.35;;;;;;;-144.30;100.00;85082.34;5110120;28;20201;-61
2023/06/14 01:57:30;;;;;;;11.15;9.13;;;;;;;-144.30;100.00;85058.50;5110286;28;21109;-61
2023/06/14 01:59:57;;;;;;;9.38;8.63;;;;;;;-144.30;100.00;85046.56;5110383;28;20215;-62
2023/06/14 02:02:24;;;;;;;9.98;9.10;;;;;;;-144.30;100.00;84990.91;5111713;28;20215;-61
2023/06/14 02:04:52;;;;;;;12.35;8.52;;;;;;;-144.30;100.00;85032.66;5114388;28;20577;-61
2023/06/14 02:07:19;;;;;;;9.30;8.50;;;;;;;-144.30;100.00;85040.59;5114069;28;20196;-60
2023/06/14 02:09:45;;;;;;;9.98;8.88;;;;;;;-144.30;100.00;85066.44;5113877;28;20317;-62
2023/06/14 02:12:12;;;;;;;9.25;8.45;;;;;;;-144.30;100.00;85056.50;5113810;28;20212;-62
2023/06/14 02:14:41;;;;;;;8.95;8.05;;;;;;;-144.30;100.00;85040.59;5113909;28;20198;-62
2023/06/14 02:17:07;;;;;;;9.73;7.82;;;;;;;-144.30;100.00;85060.50;5114094;28;20607;-56
2023/06/14 02:19:34;;;;;;;8.48;7.97;;;;;;;-144.30;100.00;85060.50;5113327;28;20191;-56
2023/06/14 02:22:01;;;;;;;9.10;8.15;;;;;;;-144.30;100.00;85042.59;5113117;28;20313;-56
2023/06/14 02:24:28;;;;;;;8.45;7.78;;;;;;;-144.30;100.00;85062.47;5113320;28;20194;-61
2023/06/14 02:26:55;;;;;;;8.70;7.90;;;;;;;-144.30;100.00;85012.78;5113862;28;20201;-56
2023/06/14 02:29:22;;;;;;;8.63;7.88;;;;;;;-144.30;100.00;85058.50;5112971;28;20194;-60
2023/06/14 02:31:50;;;;;;;8.50;7.78;;;;;;;-144.30;100.00;85050.53;5113794;28;20198;-62
2023/06/14 02:34:18;;;;;;;8.32;7.63;;;;;;;-144.30;100.00;85074.41;5112758;28;20237;-56
2023/06/14 02:36:45;;;;;;;8.90;8.15;;;;;;;-144.30;100.00;85064.47;5113009;28;20288;-56
2023/06/14 02:39:12;;;;;;;8.10;7.60;;;;;;;-144.30;100.00;85074.41;5112965;28;20198;-56
2023/06/14 02:41:39;;;;;;;8.20;7.40;;;;;;;-144.30;100.00;85050.53;5113106;28;20219;-56
2023/06/14 02:44:07;;;;;;;11.25;8.70;;;;;;;-144.30;100.00;85100.25;5112930;28;20240;-62
2023/06/14 02:46:34;;;;;;;12.88;8.52;;;;;;;-144.30;100.00;85072.41;5112935;28;20230;-62
2023/06/14 02:49:02;;;;;;;9.18;8.40;;;;;;;-144.30;100.00;85100.25;5113297;28;20199;-61
2023/06/14 02:51:29;;;;;;;8.63;7.85;;;;;;;-144.30;100.00;85022.72;5112871;28;20281;-62
2023/06/14 02:53:56;;;;;;;7.35;6.65;;;;;;;-144.30;99.75;85696.63;5112786;28;20318;-61
2023/06/14 02:56:23;;;;;;;8.38;7.63;;;;;;;-144.30;99.96;85102.22;5113140;28;20230;-61
2023/06/14 02:58:51;;;;;;;7.13;6.53;;;;;;;-144.30;99.51;85074.41;5113076;28;20199;-62
2023/06/14 03:01:20;;;;;;;7.53;7.03;;;;;;;-144.30;99.51;85112.16;5112152;28;20205;-62
2023/06/14 03:03:47;;;;;;;7.43;6.97;;;;;;;-144.30;100.00;85086.31;5112452;28;20286;-61
2023/06/14 03:06:16;;;;;;;13.02;7.63;;;;;;;-144.30;100.00;85104.22;5112727;28;20688;-61
2023/06/14 03:08:43;;;;;;;9.05;7.13;;;;;;;-144.30;100.00;85120.13;5112232;28;20285;-61
2023/06/14 03:11:10;;;;;;;7.15;6.65;;;;;;;-144.30;100.00;85088.31;5112605;28;20251;-61
2023/06/14 03:13:38;;;;;;;8.52;7.32;;;;;;;-144.30;100.00;85126.09;5111483;28;20203;-62
2023/06/14 03:16:07;;;;;;;7.65;7.05;;;;;;;-144.30;100.00;85122.09;5112237;28;20259;-61
2023/06/14 03:18:35;;;;;;;7.65;7.15;;;;;;;-144.30;100.00;85106.22;5111845;28;20623;-62
2023/06/14 03:21:02;;;;;;;8.52;7.35;;;;;;;-144.30;100.00;85104.22;5112082;28;20199;-62
2023/06/14 03:23:30;;;;;;;8.27;7.60;;;;;;;-144.30;100.00;85098.25;5111856;28;20218;-61
2023/06/14 03:25:58;;;;;;;7.65;6.95;;;;;;;-144.30;99.74;85108.19;5112265;28;20245;-61
2023/06/14 03:28:25;;;;;;;7.65;6.95;;;;;;;-144.30;99.55;85120.13;5112352;28;20216;-62
2023/06/14 03:30:52;;;;;;;10.95;7.35;;;;;;;-144.30;99.07;85018.75;5111797;28;20203;-61
2023/06/14 03:33:20;;;;;;;8.20;7.35;;;;;;;-144.30;98.88;85064.47;5112020;28;20227;-61
2023/06/14 03:35:47;;;;;;;8.45;7.75;;;;;;;-144.30;99.08;85096.25;5112096;28;20285;-61
2023/06/14 03:38:14;;;;;;;8.25;7.53;;;;;;;-144.30;99.52;85064.47;5111941;28;20195;-62
2023/06/14 03:40:44;;;;;;;8.45;7.55;;;;;;;-144.30;99.47;85070.44;5112163;28;20696;-62
2023/06/14 03:43:11;;;;;;;7.38;6.88;;;;;;;-144.30;98.79;85086.31;5111617;27;20309;-61
2023/06/14 03:45:38;;;;;;;8.00;7.30;;;;;;;-144.30;98.40;85036.63;5112108;28;20301;-61
2023/06/14 03:48:06;;;;;;;8.48;7.65;;;;;;;-144.30;98.25;85104.22;5110591;28;20517;-62
2023/06/14 03:50:33;;;;;;;8.25;7.55;;;;;;;-144.30;98.45;85062.47;5111370;28;20198;-64
2023/06/14 03:53:02;;;;;;;9.13;7.55;;;;;;;-144.30;97.83;85088.31;5111464;28;20187;-64
2023/06/14 03:55:31;;;;;;;8.02;7.43;;;;;;;-144.30;97.34;85034.66;5109821;28;20205;-64
2023/06/14 03:57:59;;;;;;;8.88;7.22;;;;;;;-144.30;96.96;85060.50;5111303;28;20595;-65
2023/06/14 04:00:26;;;;;;;7.53;6.97;;;;;;;-144.30;95.81;85018.75;5103893;28;20195;-65
2023/06/14 04:02:54;;;;;;;6.95;6.30;;;;;;;-144.30;94.99;85090.31;5105193;28;20219;-65
2023/06/14 04:05:21;;;;;;;7.63;6.93;;;;;;;-144.30;94.79;85076.38;5110653;28;20618;-64
2023/06/14 04:07:48;;;;;;;7.20;6.53;;;;;;;-144.30;94.57;85052.53;5110913;28;20234;-64
2023/06/14 04:10:16;;;;;;;7.32;6.72;;;;;;;-144.30;94.21;85038.63;5110954;28;20201;-63
2023/06/14 04:12:43;;;;;;;6.68;6.25;;;;;;;-144.30;93.81;85076.38;5105176;28;20202;-58
2023/06/14 04:15:12;;;;;;;7.50;6.78;;;;;;;-144.30;93.97;85020.72;5108417;28;20278;-58
2023/06/14 04:17:39;;;;;;;7.30;6.50;;;;;;;-144.30;93.72;85030.66;5110659;28;20199;-56
2023/06/14 04:20:09;;;;;;;8.77;6.85;;;;;;;-144.30;93.20;85026.69;5107974;28;20190;-57
2023/06/14 04:22:36;;;;;;;7.38;6.68;;;;;;;-144.30;92.89;85010.78;5110276;28;20214;-59
2023/06/14 04:25:06;;;;;;;8.90;7.05;;;;;;;-144.30;92.76;85034.66;5110613;28;20201;-54
2023/06/14 04:27:35;;;;;;;8.55;7.18;;;;;;;-144.30;92.11;85014.78;5110232;28;20210;-55
2023/06/14 04:30:02;;;;;;;6.78;6.13;;;;;;;-144.30;91.79;85028.69;5111174;28;20277;-58
2023/06/14 04:32:33;;;;;;;7.35;5.88;;;;;;;-144.30;91.61;85034.66;5110796;28;20700;-56
2023/06/14 04:35:01;;;;;;;6.55;6.10;;;;;;;-144.30;91.21;84984.97;5110671;28;20222;-58
2023/06/14 04:37:30;;;;;;;7.05;6.10;;;;;;;-144.30;90.71;84982.97;5110505;28;20202;-54
2023/06/14 04:39:57;;;;;;;9.18;6.88;;;;;;;-144.30;90.53;85010.78;5110721;28;20203;-58
2023/06/14 04:42:31;;;;;;;6.85;6.25;;;;;;;-144.30;90.29;84973.03;5110389;28;20309;-56
2023/06/14 04:44:58;;;;;;;6.97;6.35;;;;;;;-144.30;89.77;84975.00;5110827;28;20195;-58
2023/06/14 04:47:29;;;;;;;6.82;6.32;;;;;;;-144.30;89.38;84915.38;5110593;28;20198;-57
2023/06/14 04:50:00;;;;;;;8.20;7.43;;;;;;;-144.30;88.98;84907.44;5110477;28;20208;-58
2023/06/14 04:52:29;;;;;;;7.32;6.63;;;;;;;-144.30;89.10;84901.47;5110386;28;20190;-57
2023/06/14 04:54:56;;;;;;;8.15;7.40;;;;;;;-144.30;88.49;84887.56;5107911;28;20258;-57
2023/06/14 04:57:25;;;;;;;8.52;7.90;;;;;;;-144.30;88.09;84867.69;5096385;27;20219;-57
2023/06/14 04:59:54;;;;;;;20.38;7.95;;;;;;;-144.30;88.06;84881.59;5089528;28;20753;-56
2023/06/14 05:02:22;;;;;;;13.10;8.63;;;;;;;-144.30;88.32;84851.78;5107132;28;20296;-57
2023/06/14 05:04:49;;;;;;;8.68;8.00;;;;;;;-144.30;89.12;84891.53;5110033;28;20644;-56
2023/06/14 05:07:17;;;;;;;10.25;8.77;;;;;;;-144.30;89.56;84945.19;5110325;28;20583;-59
2023/06/14 05:09:45;;;;;;;9.23;8.45;;;;;;;-144.30;89.50;84891.53;5110304;28;20204;-59
2023/06/14 05:12:12;;;;;;;9.32;8.57;;;;;;;-144.30;88.69;84873.66;5110155;28;20194;-57
2023/06/14 05:14:39;;;;;;;12.50;9.20;;;;;;;-144.30;88.86;84853.78;5110281;28;20682;-58
2023/06/14 05:17:06;;;;;;;10.85;9.57;;;;;;;-144.30;89.87;84847.81;5110182;28;20662;-57
2023/06/14 05:19:33;;;;;;;10.07;9.13;;;;;;;-144.30;89.96;84863.72;5109790;28;20266;-58
2023/06/14 05:22:00;;;;;;;10.20;8.95;;;;;;;-144.30;89.57;84853.78;5130300;27;20204;-56
2023/06/14 05:24:30;;;;;;;12.07;10.98;;;;;;;-144.30;89.20;84839.84;5130486;27;20696;-57
2023/06/14 05:26:57;;;;;;;15.02;9.82;;;;;;;-144.30;88.75;84808.06;5116877;28;20198;-59
2023/06/14 05:29:24;;;;;;;11.40;9.88;;;;;;;-144.30;88.22;84784.19;5109830;28;20238;-57
2023/06/14 05:31:50;;;;;;;17.58;10.00;;;;;;;-144.30;87.64;84760.34;5110200;28;20199;-59
2023/06/14 05:34:17;;;;;;;15.00;11.00;;;;;;;-144.30;87.61;84778.25;5109028;28;20225;-59
2023/06/14 05:36:44;;;;;;;13.68;12.35;;;;;;;-144.30;87.83;84746.44;5109811;28;20244;-57
2023/06/14 05:39:11;;;;;;;12.10;10.90;;;;;;;-144.30;87.28;84756.38;5113498;28;20194;-57
2023/06/14 05:41:39;;;;;;;13.98;11.13;;;;;;;-144.30;86.82;84730.53;5114161;28;20338;-57
2023/06/14 05:44:07;;;;;;;13.95;12.38;;;;;;;-144.30;86.65;84756.38;5112691;28;20218;-57
2023/06/14 05:46:34;;;;;;;15.80;14.20;;;;;;;-144.30;86.34;84732.53;5103890;28;20199;-57
2023/06/14 05:49:01;;;;;;;12.98;11.77;;;;;;;-144.30;86.38;84724.56;5093488;28;20195;-57
2023/06/14 05:51:28;;;;;;;13.65;12.15;;;;;;;-144.30;85.58;84696.75;5093251;28;20191;-57
2023/06/14 05:53:56;;;;;;;14.30;12.80;;;;;;;-144.30;85.73;84657.00;5109063;28;20197;-56
2023/06/14 05:56:23;;;;;;;14.13;12.35;;;;;;;-144.30;85.44;84684.81;5113750;28;20230;-57
2023/06/14 05:58:51;;;;;;;12.65;11.60;;;;;;;-144.30;85.64;84647.06;5113778;28;20672;-57
2023/06/14 06:01:18;;;;;;;14.23;12.85;;;;;;;-144.30;85.96;84660.97;5113515;28;20197;-57
2023/06/14 06:03:47;;;;;;;14.95;11.70;;;;;;;-144.30;85.94;84720.59;5113346;28;20240;-55
2023/06/14 06:06:14;;;;;;;19.63;11.85;;;;;;;-144.30;85.51;84641.09;5113315;28;20251;-63
2023/06/14 06:08:42;;;;;;;14.23;12.38;;;;;;;-144.30;84.33;84625.19;5113495;28;20712;-56
2023/06/14 06:11:09;;;;;;;14.35;12.82;;;;;;;-144.30;83.17;84581.47;5114264;27;20222;-56
2023/06/14 06:13:36;;;;;;;16.98;15.20;;;;;;;-144.30;83.75;84607.31;5133032;27;20190;-57
2023/06/14 06:16:05;;;;;;;13.20;11.85;;;;;;;-144.30;82.76;84597.38;5134131;27;20190;-63
2023/06/14 06:18:32;;;;;;;13.40;12.13;;;;;;;-144.30;81.86;84553.66;5133012;27;20649;-63
2023/06/14 06:20:59;;;;;;;14.27;11.77;;;;;;;-144.30;80.02;84468.19;5133868;27;20204;-63
2023/06/14 06:23:26;;;;;;;14.45;12.90;;;;;;;-144.30;77.99;84382.72;5128854;27;20210;-57
2023/06/14 06:25:53;;;;;;;13.60;10.95;;;;;;;-144.30;76.23;84253.56;5113810;28;20282;-57
2023/06/14 06:28:20;;;;;;;13.50;11.98;;;;;;;-144.30;73.18;84128.34;5113378;28;20608;-57
2023/06/14 06:30:47;;;;;;;11.57;10.35;;;;;;;-144.30;72.08;84038.94;5113047;28;20205;-57
2023/06/14 06:33:15;;;;;;;12.55;11.23;;;;;;;-144.30;69.16;83909.78;5112667;28;20230;-58
2023/06/14 06:35:42;;;;;;;13.43;10.52;;;;;;;-144.30;67.91;83903.81;5113003;28;20201;-57
2023/06/14 06:38:09;;;;;;;11.73;10.52;;;;;;;-144.30;65.99;83685.25;5113107;28;20281;-63
2023/06/14 06:40:36;;;;;;;10.95;10.00;;;;;;;-144.30;63.98;83554.09;5112845;28;20198;-64
2023/06/14 06:43:03;;;;;;;10.85;9.70;;;;;;;-144.30;61.60;83476.63;5112855;28;20309;-63
2023/06/14 06:45:30;;;;;;;12.32;9.68;;;;;;;-144.30;61.00;83484.56;5112919;28;20659;-64
2023/06/14 06:47:57;;;;;;;9.80;8.98;;;;;;;-144.30;59.93;83375.28;5112743;28;20693;-63
2023/06/14 06:50:25;;;;;;;11.48;10.43;;;;;;;-144.30;60.76;83506.41;5112130;28;20195;-64
2023/06/14 06:52:52;;;;;;;12.48;11.30;;;;;;;-144.30;60.32;83407.06;5112778;28;20662;-64
2023/06/14 06:55:20;;;;;;;11.40;10.20;;;;;;;-144.30;60.36;83456.75;5111843;28;20187;-57
2023/06/14 06:57:46;;;;;;;11.98;10.77;;;;;;;-144.30;59.89;83466.69;5112589;28;20203;-56
2023/06/14 07:00:14;;;;;;;14.43;10.45;;;;;;;-144.30;60.41;83536.22;5112335;28;20199;-60
2023/06/14 07:02:41;;;;;;;15.88;10.52;;;;;;;-144.30;61.54;83597.81;5112445;28;20222;-55
2023/06/14 07:05:08;;;;;;;12.27;11.02;;;;;;;-144.30;61.90;83647.50;5111928;28;20195;-56
2023/06/14 07:07:36;;;;;;;15.88;11.88;;;;;;;-144.30;62.41;83723.00;5108219;28;20585;-55
2023/06/14 07:10:04;;;;;;;13.80;12.48;;;;;;;-144.30;63.63;83862.09;5111357;28;20197;-57
2023/06/14 07:12:33;;;;;;;16.27;11.60;;;;;;;-144.30;65.27;83937.59;5110765;28;20669;-56
2023/06/14 07:15:00;;;;;;;13.27;12.07;;;;;;;-144.30;67.17;83973.38;5111404;28;20201;-56
2023/06/14 07:17:27;;;;;;;20.63;12.57;;;;;;;-144.30;67.87;84005.16;5111417;28;20186;-55
2023/06/14 07:19:54;;;;;;;15.10;12.05;;;;;;;-144.30;67.96;83987.28;5111790;28;20198;-62
2023/06/14 07:22:21;;;;;;;14.85;10.77;;;;;;;-144.30;68.40;83975.34;5111821;28;20219;-60
2023/06/14 07:24:49;;;;;;;13.52;11.55;;;;;;;-144.30;68.26;83967.41;5112209;28;20215;-60
2023/06/14 07:27:16;;;;;;;13.55;11.30;;;;;;;-144.30;68.09;83921.69;5112473;28;20195;-57
2023/06/14 07:29:43;;;;;;;13.88;11.77;;;;;;;-144.30;67.51;83959.44;5111485;28;20247;-56
2023/06/14 07:32:10;;;;;;;12.68;11.38;;;;;;;-144.30;66.31;83840.22;5111207;28;20206;-56
2023/06/14 07:34:37;;;;;;;13.35;12.07;;;;;;;-144.30;65.06;83826.31;5110230;28;20748;-57
2023/06/14 07:37:04;;;;;;;13.90;11.50;;;;;;;-144.30;65.91;83876.00;5111998;28;20221;-57
2023/06/14 07:39:31;;;;;;;12.38;11.13;;;;;;;-144.30;66.67;83925.66;5111592;28;20197;-58
2023/06/14 07:41:59;;;;;;;13.57;11.25;;;;;;;-144.30;66.45;83877.97;5111843;28;20203;-56
2023/06/14 07:44:30;;;;;;;10.93;9.95;;;;;;;-144.30;65.20;83742.88;5111502;28;20226;-56
2023/06/14 07:46:59;;;;;;;11.85;9.85;;;;;;;-144.30;65.69;83870.03;5111809;28;20237;-56
2023/06/14 07:49:26;;;;;;;11.43;10.32;;;;;;;-144.30;65.32;83895.88;5111589;28;20693;-56
2023/06/14 07:51:53;;;;;;;10.40;9.57;;;;;;;-144.30;64.43;83850.16;5111870;28;20217;-55
2023/06/14 07:54:24;;;;;;;10.57;9.65;;;;;;;-144.30;64.13;83820.34;5111200;28;20198;-60
2023/06/14 07:56:51;;;;;;;19.67;10.55;;;;;;;-144.30;63.78;83862.09;5111050;28;20195;-57
2023/06/14 07:59:19;;;;;;;12.50;9.80;;;;;;;-144.30;64.00;83887.91;5110618;28;20684;-56
2023/06/14 08:01:47;;;;;;;12.30;11.13;;;;;;;-144.30;64.41;83868.03;5110584;28;20190;-60
2023/06/14 08:04:14;;;;;;;15.30;10.77;;;;;;;-144.30;63.36;83842.22;5111422;28;20780;-60
2023/06/14 08:06:43;;;;;;;12.65;11.75;;;;;;;-144.30;63.19;83842.22;5111653;28;20222;-60
2023/06/14 08:09:10;;;;;;;12.90;11.75;;;;;;;-144.30;63.17;83850.16;5111323;28;20202;-57
2023/06/14 08:11:37;;;;;;;11.43;10.43;;;;;;;-144.30;63.51;83830.28;5111248;28;20195;-57
2023/06/14 08:14:04;;;;;;;11.32;10.52;;;;;;;-144.30;62.15;83784.59;5107468;28;20195;-60
2023/06/14 08:16:33;;;;;;;12.48;11.27;;;;;;;-144.30;61.17;83760.75;5109839;27;20218;-59
2023/06/14 08:18:59;;;;;;;12.75;11.40;;;;;;;-144.30;61.21;83774.66;5111608;28;20658;-60
2023/06/14 08:21:27;;;;;;;12.57;11.35;;;;;;;-144.30;61.35;83742.88;5110090;28;20194;-59
2023/06/14 08:23:54;;;;;;;10.68;9.75;;;;;;;-144.30;60.32;83707.09;5110886;28;20287;-59
2023/06/14 08:26:21;;;;;;;11.38;10.57;;;;;;;-144.30;59.88;83711.06;5110962;28;20195;-60
2023/06/14 08:28:48;;;;;;;11.68;10.63;;;;;;;-144.30;59.92;83679.28;5111019;28;20200;-60
2023/06/14 08:31:14;;;;;;;12.07;11.07;;;;;;;-144.30;59.74;83663.38;5111587;28;20212;-57
2023/06/14 08:33:43;;;;;;;12.10;10.70;;;;;;;-144.30;59.44;83619.66;5111265;28;20224;-57
2023/06/14 08:36:11;;;;;;;11.50;10.43;;;;;;;-144.30;58.60;83583.91;5111374;28;20206;-57
2023/06/14 08:38:40;;;;;;;10.98;10.05;;;;;;;-144.30;58.71;83579.94;5111581;28;20206;-57
2023/06/14 08:41:09;;;;;;;11.60;10.80;;;;;;;-144.30;58.45;83575.97;5110090;28;20195;-60
2023/06/14 08:43:35;;;;;;;11.13;10.43;;;;;;;-144.30;58.13;83520.31;5111000;28;20228;-57
2023/06/14 08:46:05;;;;;;;12.95;11.48;;;;;;;-144.30;58.86;83516.34;5111347;28;20199;-57
2023/06/14 08:48:33;;;;;;;12.75;11.60;;;;;;;-144.30;58.56;83564.03;5109351;28;20582;-57
2023/06/14 08:51:03;;;;;;;12.40;11.27;;;;;;;-144.30;57.82;83562.06;5093401;28;20207;-56
2023/06/14 08:53:33;;;;;;;11.93;10.73;;;;;;;-144.30;58.06;83468.66;5090019;28;20218;-57
2023/06/14 08:56:01;;;;;;;14.75;10.52;;;;;;;-144.30;56.89;83500.47;5090421;28;20280;-60
2023/06/14 08:58:29;;;;;;;12.32;11.15;;;;;;;-144.30;56.75;83474.63;5089958;28;20260;-60
2023/06/14 09:00:57;;;;;;;11.98;11.18;;;;;;;-144.30;57.98;83554.09;5090320;28;20195;-60
2023/06/14 09:03:29;;;;;;;13.75;11.43;;;;;;;-144.30;57.90;83506.41;5089248;28;20215;-60
2023/06/14 09:05:58;;;;;;;12.32;11.20;;;;;;;-144.30;57.43;83468.66;5090657;28;20565;-60
2023/06/14 09:08:30;;;;;;;11.48;10.45;;;;;;;-144.30;57.32;83530.25;5089827;28;20196;-60
2023/06/14 09:10:57;;;;;;;12.15;11.00;;;;;;;-144.30;56.99;83444.81;5089951;28;20648;-60
2023/06/14 09:13:24;;;;;;;12.30;10.25;;;;;;;-144.30;56.89;83415.03;5089301;28;20199;-61
2023/06/14 09:15:51;;;;;;;12.02;11.13;;;;;;;-144.30;55.63;83387.22;5089995;28;20688;-60
2023/06/14 09:18:20;;;;;;;11.75;10.65;;;;;;;-144.30;55.28;83373.31;5089956;28;20272;-61
2023/06/14 09:20:48;;;;;;;11.50;10.60;;;;;;;-144.30;55.22;83462.72;5090207;28;20579;-60
2023/06/14 09:23:21;;;;;;;11.20;10.40;;;;;;;-144.30;55.82;83504.44;5089539;28;20197;-60
2023/06/14 09:25:49;;;;;;;11.18;10.40;;;;;;;-144.30;56.36;83472.66;5095165;28;20260;-60
2023/06/14 09:28:16;;;;;;;12.18;10.50;;;;;;;-144.30;56.63;83508.41;5110602;28;20198;-60
2023/06/14 09:30:43;;;;;;;12.05;11.25;;;;;;;-144.30;58.13;83613.72;5110346;28;20204;-60
2023/06/14 09:33:10;;;;;;;12.38;11.20;;;;;;;-144.30;58.08;83629.59;5109856;28;20238;-60
2023/06/14 09:35:37;;;;;;;12.15;11.00;;;;;;;-144.30;59.08;83623.66;5109713;28;20234;-60
2023/06/14 09:38:06;;;;;;;11.43;10.32;;;;;;;-144.30;59.22;83613.72;5110064;28;20191;-60
2023/06/14 09:40:36;;;;;;;11.93;10.40;;;;;;;-144.30;59.33;83641.53;5110094;28;20718;-59
2023/06/14 09:43:08;;;;;;;12.65;11.30;;;;;;;-144.30;59.22;83663.38;5110196;28;20230;-60
2023/06/14 09:45:34;;;;;;;11.63;10.63;;;;;;;-144.30;59.26;83675.31;5110053;28;20660;-60
2023/06/14 09:48:02;;;;;;;12.52;11.57;;;;;;;-144.30;59.27;83715.03;5109450;28;20202;-56
2023/06/14 09:50:29;;;;;;;12.55;11.45;;;;;;;-144.30;60.00;84072.72;5109605;28;20202;-56
2023/06/14 09:53:03;;;;;;;12.23;11.10;;;;;;;-144.30;60.58;83784.59;5110005;28;20194;-56
2023/06/14 09:55:35;;;;;;;12.20;11.15;;;;;;;-144.30;60.80;83726.97;5105635;28;20189;-57
2023/06/14 09:58:07;;;;;;;12.43;11.38;;;;;;;-144.30;60.92;83734.91;5109749;28;20675;-56
2023/06/14 10:00:35;;;;;;;11.80;10.82;;;;;;;-144.30;60.44;83748.81;5109509;28;20277;-57
2023/06/14 10:03:11;;;;;;;12.25;11.25;;;;;;;-144.30;60.22;83726.97;5109560;28;20195;-60
2023/06/14 10:05:39;;;;;;;13.02;11.95;;;;;;;-144.30;60.46;83723.00;5109630;28;20225;-60
2023/06/14 10:08:09;;;;;;;12.80;11.85;;;;;;;-144.30;60.51;83778.63;5109918;28;20209;-60
2023/06/14 10:10:37;;;;;;;12.85;11.85;;;;;;;-144.30;60.85;83816.38;5109328;28;20205;-61
2023/06/14 10:13:03;;;;;;;12.88;11.60;;;;;;;-144.30;62.08;83919.72;5109557;28;20205;-60
2023/06/14 10:15:39;;;;;;;12.38;11.27;;;;;;;-144.30;62.85;83887.91;5109726;28;20226;-60
2023/06/14 10:18:20;;;;;;;25.90;12.98;;;;;;;-144.30;63.47;83913.75;5109839;28;20261;-60
2023/06/14 10:20:56;;;;;;;13.85;12.73;;;;;;;-144.30;63.29;83842.22;5109960;28;20636;-60
2023/06/14 10:23:25;;;;;;;12.32;11.45;;;;;;;-144.30;62.90;83854.13;5110755;28;20202;-60
2023/06/14 10:25:57;;;;;;;15.50;13.32;;;;;;;-144.30;65.04;83792.53;5112944;28;20194;-60
2023/06/14 10:28:24;;;;;;;14.32;12.98;;;;;;;-144.30;64.41;83768.69;5112728;28;20205;-59
2023/06/14 10:31:05;;;;;;;13.68;12.57;;;;;;;-144.30;62.90;83715.03;5112505;28;20199;-60
2023/06/14 10:33:32;;;;;;;13.93;12.73;;;;;;;-144.30;61.91;83623.66;5110052;28;20237;-61
2023/06/14 10:36:25;;;;;;;14.63;13.20;;;;;;;-144.30;61.01;83603.78;5113032;28;20191;-61
2023/06/14 10:38:59;;;;;;;18.35;13.00;;;;;;;-144.30;60.77;83518.34;5113120;28;20205;-60
2023/06/14 10:41:28;;;;;;;16.67;13.10;;;;;;;-144.30;60.25;83518.34;5112824;28;20211;-60
2023/06/14 10:44:28;;;;;;;16.02;12.45;;;;;;;-144.30;58.94;83538.22;5113135;28;20219;-60
2023/06/14 10:46:59;;;;;;;13.35;12.15;;;;;;;-144.30;58.62;83462.72;5112308;28;20198;-59
2023/06/14 10:49:41;;;;;;;13.25;12.25;;;;;;;-144.30;59.07;83822.34;5108878;28;20198;-60
2023/06/14 10:52:16;;;;;;;13.63;12.43;;;;;;;-144.30;59.29;83560.06;5110554;28;20190;-59
2023/06/14 10:54:59;;;;;;;13.70;12.32;;;;;;;-144.30;58.54;83528.28;5109460;28;20280;-58
2023/06/14 10:57:26;;;;;;;13.75;11.93;;;;;;;-144.30;58.18;83466.69;5109663;28;20190;-60
2023/06/14 10:59:54;;;;;;;13.50;11.20;;;;;;;-144.30;57.39;83407.06;5111870;28;20201;-60
2023/06/14 11:02:51;;;;;;;13.15;11.98;;;;;;;-144.30;57.11;83369.34;5111873;28;20187;-59
2023/06/14 11:05:25;;;;;;;13.32;11.98;;;;;;;-144.30;56.93;83395.16;5111214;28;20210;-60
2023/06/14 11:08:11;;;;;;;14.40;13.07;;;;;;;-144.30;57.34;83399.13;5112008;28;20193;-60
2023/06/14 11:10:39;;;;;;;12.93;11.93;;;;;;;-144.30;57.02;83367.34;5111989;28;20710;-59
2023/06/14 11:13:07;;;;;;;13.43;12.20;;;;;;;-144.30;56.94;83377.28;5111795;28;20196;-60